Time;durP1;ratioP1;P1;durP2;ratioP2;P2;SDS_P1;SDS_P2;PMS_P1;PMS_P2;Temp;Humidity;BMP_temperature;BMP_pressure;BME280_temperature;BME280_humidity;BME280_pressure;Samples;Min_cycle;Max_cycle;Signal;HPM_P1;HPM_P2
2023/08/03 00:00:51;;;;;;;10.87;6.00;;;26.00;68.00;;;;;;4898084;29;20040;-82
2023/08/03 00:03:17;;;;;;;7.90;5.50;;;26.00;68.30;;;;;;4898812;29;20044;-83
2023/08/03 00:05:43;;;;;;;10.00;6.47;;;26.00;68.40;;;;;;4897825;29;20064;-82
2023/08/03 00:08:08;;;;;;;9.23;5.13;;;26.00;68.00;;;;;;4896662;29;20036;-82
2023/08/03 00:10:35;;;;;;;8.63;5.23;;;26.00;67.70;;;;;;4898359;29;20491;-82
2023/08/03 00:13:01;;;;;;;11.45;5.60;;;26.00;67.60;;;;;;4893763;29;20033;-82
2023/08/03 00:15:26;;;;;;;8.97;5.70;;;26.00;67.60;;;;;;4891006;29;20121;-82
2023/08/03 00:17:52;;;;;;;11.23;6.17;;;26.00;67.90;;;;;;4880797;29;20064;-82
2023/08/03 00:20:18;;;;;;;8.17;5.40;;;26.00;68.10;;;;;;4897937;29;20029;-82
2023/08/03 00:22:46;;;;;;;9.30;4.80;;;25.80;68.60;;;;;;4896269;29;20498;-82
2023/08/03 00:25:12;;;;;;;12.10;4.93;;;25.70;69.10;;;;;;4897857;29;20107;-82
2023/08/03 00:27:38;;;;;;;8.00;5.10;;;25.70;69.70;;;;;;4897405;29;20093;-82
2023/08/03 00:30:04;;;;;;;10.33;5.00;;;25.60;69.80;;;;;;4896218;29;20037;-82
2023/08/03 00:32:30;;;;;;;9.30;4.95;;;25.60;70.30;;;;;;4896539;29;20518;-82
2023/08/03 00:34:56;;;;;;;12.50;5.70;;;25.60;71.00;;;;;;4896175;29;20036;-82
2023/08/03 00:37:22;;;;;;;15.30;5.87;;;25.50;70.90;;;;;;4898185;29;20048;-83
2023/08/03 00:39:47;;;;;;;9.57;6.33;;;25.40;70.80;;;;;;4896346;29;20048;-82
2023/08/03 00:42:13;;;;;;;15.60;6.13;;;25.40;71.20;;;;;;4881402;29;20416;-82
2023/08/03 00:44:39;;;;;;;11.13;6.20;;;25.40;71.20;;;;;;4880552;29;20028;-82
2023/08/03 00:47:06;;;;;;;13.02;6.13;;;25.40;71.00;;;;;;4897503;29;20020;-82
2023/08/03 00:49:32;;;;;;;12.03;7.03;;;25.40;70.60;;;;;;4897973;29;20021;-82
2023/08/03 00:51:59;;;;;;;12.57;6.20;;;25.40;70.40;;;;;;4886918;29;20096;-83
2023/08/03 00:54:26;;;;;;;12.13;6.38;;;25.40;70.50;;;;;;4896402;29;20039;-82
2023/08/03 00:56:51;;;;;;;15.57;6.27;;;25.40;70.50;;;;;;4895922;29;20029;-82
2023/08/03 00:59:18;;;;;;;12.50;6.70;;;25.40;70.10;;;;;;4911967;29;20025;-82
2023/08/03 01:01:43;;;;;;;11.02;6.25;;;25.40;70.30;;;;;;4895700;29;20033;-82
2023/08/03 01:04:10;;;;;;;9.80;5.33;;;25.40;70.10;;;;;;4897596;29;20039;-82
2023/08/03 01:06:36;;;;;;;9.15;5.47;;;25.40;70.20;;;;;;4880712;29;20036;-82
2023/08/03 01:09:04;;;;;;;13.68;6.18;;;25.40;70.10;;;;;;4912174;29;20025;-82
2023/08/03 01:11:31;;;;;;;10.38;5.78;;;25.40;69.70;;;;;;4912134;29;20029;-82
2023/08/03 01:13:57;;;;;;;12.65;5.45;;;25.40;69.80;;;;;;4896607;29;20060;-84
2023/08/03 01:16:24;;;;;;;;;;;25.40;69.90;;;;;;4898157;29;20036;-82
2023/08/03 01:18:50;;;;;;;9.43;5.50;;;25.40;68.40;;;;;;4900137;29;20378;-83
2023/08/03 01:21:19;;;;;;;9.95;5.15;;;25.30;69.90;;;;;;4900210;29;20044;-82
2023/08/03 01:23:45;;;;;;;11.82;5.07;;;25.30;70.00;;;;;;4900370;29;20423;-82
2023/08/03 01:26:11;;;;;;;7.18;4.70;;;25.30;70.50;;;;;;4900236;29;20025;-82
2023/08/03 01:28:37;;;;;;;9.57;4.90;;;25.30;70.20;;;;;;4915463;29;20051;-82
2023/08/03 01:31:03;;;;;;;9.77;6.40;;;25.30;70.10;;;;;;4899665;29;20514;-83
2023/08/03 01:33:30;;;;;;;13.90;7.38;;;25.20;69.80;;;;;;4899731;29;20044;-82
2023/08/03 01:35:56;;;;;;;13.45;6.50;;;25.20;70.20;;;;;;4899750;29;20033;-82
2023/08/03 01:38:21;;;;;;;15.93;7.70;;;25.10;70.70;;;;;;4883921;29;20043;-82
2023/08/03 01:40:47;;;;;;;13.87;7.47;;;25.10;70.90;;;;;;4899358;29;20056;-82
2023/08/03 01:43:13;;;;;;;16.80;8.30;;;25.00;71.10;;;;;;4899515;29;20127;-83
2023/08/03 01:45:39;;;;;;;15.30;7.70;;;25.10;71.30;;;;;;4915299;29;20170;-83
2023/08/03 01:48:05;;;;;;;18.97;8.40;;;25.10;71.70;;;;;;4900464;29;20277;-83
2023/08/03 01:50:31;;;;;;;14.00;7.67;;;25.10;71.20;;;;;;4899390;29;20028;-82
2023/08/03 01:52:57;;;;;;;11.30;7.33;;;25.10;70.90;;;;;;4900456;29;20479;-82
2023/08/03 01:55:22;;;;;;;12.40;8.23;;;25.10;70.90;;;;;;4883709;29;20471;-82
2023/08/03 01:57:48;;;;;;;13.90;7.23;;;25.00;71.20;;;;;;4883647;29;20039;-82
2023/08/03 02:00:14;;;;;;;12.67;7.60;;;25.00;71.30;;;;;;4899379;29;20025;-82
2023/08/03 02:02:40;;;;;;;12.50;8.00;;;25.00;71.80;;;;;;4899242;29;20032;-82
2023/08/03 02:05:06;;;;;;;13.07;7.53;;;25.00;71.90;;;;;;4898902;29;20028;-82
2023/08/03 02:07:45;;;;;;;10.87;7.13;;;24.90;72.20;;;;;;4883011;29;20047;-82
2023/08/03 02:10:14;;;;;;;16.25;7.20;;;24.90;73.30;;;;;;4899107;29;20613;-82
2023/08/03 02:12:40;;;;;;;10.23;7.07;;;24.80;73.70;;;;;;4898644;29;20483;-82
2023/08/03 02:15:07;;;;;;;13.00;7.63;;;24.80;74.30;;;;;;4899064;29;20047;-82
2023/08/03 02:17:33;;;;;;;15.20;7.68;;;24.80;74.30;;;;;;4898759;29;20101;-82
2023/08/03 02:19:59;;;;;;;19.25;7.65;;;24.70;74.20;;;;;;4898820;29;20033;-82
2023/08/03 02:22:25;;;;;;;13.57;8.10;;;24.70;74.30;;;;;;4898598;29;20522;-82
2023/08/03 02:24:51;;;;;;;13.87;7.43;;;24.70;74.00;;;;;;4899956;29;20032;-82
2023/08/03 02:27:17;;;;;;;14.77;8.20;;;24.80;74.20;;;;;;4898777;29;20040;-82
2023/08/03 02:29:43;;;;;;;14.00;8.03;;;24.70;74.70;;;;;;4896642;29;20806;-82
2023/08/03 02:32:09;;;;;;;15.00;7.37;;;24.70;74.90;;;;;;4897288;29;20495;-82
2023/08/03 02:34:36;;;;;;;12.02;7.18;;;24.70;75.10;;;;;;4898247;29;20654;-82
2023/08/03 02:37:03;;;;;;;12.98;7.22;;;24.60;75.70;;;;;;4898447;29;20404;-82
2023/08/03 02:39:28;;;;;;;11.20;7.17;;;24.60;75.90;;;;;;4898393;29;20032;-82
2023/08/03 02:41:55;;;;;;;11.38;7.57;;;24.50;76.00;;;;;;4898104;29;20041;-82
2023/08/03 02:44:26;;;;;;;10.45;6.72;;;24.50;76.10;;;;;;4898365;29;20068;-82
2023/08/03 02:46:53;;;;;;;12.20;8.00;;;24.50;76.10;;;;;;4898029;29;20420;-82
2023/08/03 02:49:19;;;;;;;14.00;7.97;;;24.50;75.90;;;;;;4898548;29;20039;-82
2023/08/03 02:51:46;;;;;;;10.20;7.40;;;24.50;75.90;;;;;;4897109;29;20037;-83
2023/08/03 02:54:14;;;;;;;12.32;7.63;;;24.40;76.50;;;;;;4882363;29;20044;-82
2023/08/03 02:56:44;;;;;;;17.85;8.85;;;24.40;76.40;;;;;;4896971;29;20515;-81
2023/08/03 02:59:10;;;;;;;12.97;8.27;;;24.40;76.50;;;;;;4913926;29;20305;-82
2023/08/03 03:01:42;;;;;;;10.52;7.20;;;24.40;76.80;;;;;;4904668;29;20052;-84
2023/08/03 03:04:08;;;;;;;13.48;7.50;;;24.40;77.20;;;;;;4897223;29;20068;-83
2023/08/03 03:06:39;;;;;;;12.18;8.18;;;24.40;77.20;;;;;;4899927;29;20036;-83
2023/08/03 03:09:07;;;;;;;12.55;7.80;;;24.40;77.60;;;;;;4899147;29;20029;-82
2023/08/03 03:11:35;;;;;;;14.90;8.13;;;24.30;77.90;;;;;;4887801;29;20392;-82
2023/08/03 03:14:01;;;;;;;17.23;9.48;;;24.40;77.50;;;;;;4897344;29;20060;-82
2023/08/03 03:16:28;;;;;;;14.35;9.40;;;24.40;77.20;;;;;;4878943;29;20040;-82
2023/08/03 03:18:55;;;;;;;12.98;9.50;;;24.30;76.50;;;;;;4864194;29;20040;-82
2023/08/03 03:21:21;;;;;;;16.95;10.65;;;24.30;77.70;;;;;;4893525;29;20123;-82
2023/08/03 03:23:47;;;;;;;19.97;9.20;;;24.30;77.60;;;;;;4894742;29;20579;-82
2023/08/03 03:26:13;;;;;;;16.63;9.52;;;24.20;77.60;;;;;;4893278;29;20044;-82
2023/08/03 03:28:41;;;;;;;14.30;9.30;;;24.20;77.70;;;;;;4913164;29;20037;-82
2023/08/03 03:31:08;;;;;;;17.65;10.65;;;24.20;77.70;;;;;;4898824;29;20028;-82
2023/08/03 03:33:34;;;;;;;11.88;9.73;;;24.20;77.50;;;;;;4897564;29;20087;-82
2023/08/03 03:36:08;;;;;;;14.90;10.27;;;24.20;77.60;;;;;;4897146;29;20056;-81
2023/08/03 03:38:34;;;;;;;16.53;10.10;;;24.10;77.80;;;;;;4898122;29;20562;-82
2023/08/03 03:41:00;;;;;;;16.70;9.20;;;24.10;77.60;;;;;;4913166;29;20317;-82
2023/08/03 03:43:27;;;;;;;13.55;9.30;;;24.10;78.30;;;;;;4912337;29;20047;-84
2023/08/03 03:45:53;;;;;;;18.73;10.30;;;24.10;78.30;;;;;;4912940;29;20032;-82
2023/08/03 03:53:46;;;;;;;12.20;9.30;;;23.90;79.30;;;;;;4960568;23;20514;-79
2023/08/03 03:56:14;;;;;;;16.15;11.30;;;23.90;78.90;;;;;;4936100;29;20509;-79
2023/08/03 03:58:39;;;;;;;16.37;10.73;;;23.90;79.40;;;;;;4937487;29;20051;-79
2023/08/03 04:01:05;;;;;;;16.07;11.20;;;23.80;79.90;;;;;;4935722;29;20039;-80
2023/08/03 04:03:31;;;;;;;13.17;10.63;;;23.70;80.60;;;;;;4937573;29;20406;-79
2023/08/03 04:06:02;;;;;;;20.23;10.93;;;23.70;80.70;;;;;;4937097;29;20439;-79
2023/08/03 04:17:21;;;;;;;22.48;11.75;;;23.70;80.90;;;;;;5464864;23;20532;-82
2023/08/03 04:19:47;;;;;;;19.77;11.13;;;23.80;81.10;;;;;;4953890;29;20031;-82
2023/08/03 04:22:13;;;;;;;21.83;11.67;;;23.70;81.00;;;;;;4954811;29;20514;-82
2023/08/03 04:24:39;;;;;;;19.77;12.97;;;23.70;81.70;;;;;;4953241;29;20041;-82
2023/08/03 04:27:07;;;;;;;19.83;12.65;;;23.60;81.50;;;;;;4934676;29;20114;-82
2023/08/03 04:29:33;;;;;;;18.53;11.53;;;23.50;82.70;;;;;;4918160;29;20031;-82
2023/08/03 04:31:59;;;;;;;17.70;11.80;;;23.40;83.00;;;;;;4934027;29;20023;-82
2023/08/03 04:34:25;;;;;;;17.63;12.50;;;23.40;83.00;;;;;;4934181;29;20122;-82
2023/08/03 04:36:57;;;;;;;16.75;12.05;;;23.50;82.80;;;;;;4934168;29;20043;-83
2023/08/03 04:39:24;;;;;;;15.80;11.73;;;23.50;82.80;;;;;;4934231;29;20035;-82
2023/08/03 04:41:50;;;;;;;24.83;14.07;;;23.50;82.70;;;;;;4934012;29;20031;-82
2023/08/03 04:44:18;;;;;;;19.38;11.73;;;23.60;82.50;;;;;;4935297;29;20545;-82
2023/08/03 04:46:44;;;;;;;17.97;13.20;;;23.70;82.60;;;;;;4934118;29;20043;-82
2023/08/03 04:49:13;;;;;;;16.88;11.90;;;23.60;83.00;;;;;;4918527;29;20091;-82
2023/08/03 04:51:44;;;;;;;20.75;11.90;;;23.60;82.50;;;;;;4933791;29;20028;-82
2023/08/03 04:54:13;;;;;;;19.58;13.38;;;23.70;82.30;;;;;;4934970;29;20027;-83
2023/08/03 04:56:39;;;;;;;;;;;23.70;82.90;;;;;;4934338;29;20042;-84
2023/08/03 04:59:05;;;;;;;19.00;12.55;;;23.70;79.70;;;;;;4933642;29;19910;-83
2023/08/03 05:01:32;;;;;;;;;;;23.80;83.00;;;;;;4934075;29;20075;-82
2023/08/03 05:04:00;;;;;;;25.38;12.82;;;23.70;81.30;;;;;;4918669;29;19915;-84
2023/08/03 05:06:27;;;;;;;27.52;13.40;;;23.40;85.20;;;;;;4919879;29;20042;-82
2023/08/03 05:08:53;;;;;;;21.65;12.95;;;23.50;84.90;;;;;;4923511;29;20082;-83
2023/08/03 05:11:20;;;;;;;25.08;13.55;;;23.50;85.00;;;;;;4938379;29;20062;-82
2023/08/03 05:13:46;;;;;;;32.03;14.13;;;23.60;84.50;;;;;;4933812;29;20056;-82
2023/08/03 05:16:13;;;;;;;17.30;13.23;;;23.60;85.00;;;;;;4933811;29;20062;-83
2023/08/03 05:18:39;;;;;;;23.43;14.47;;;23.50;85.90;;;;;;4934783;29;20058;-83
2023/08/03 05:21:05;;;;;;;23.30;13.13;;;23.60;85.60;;;;;;4933663;29;20395;-83
2023/08/03 05:23:31;;;;;;;22.45;13.65;;;23.60;84.70;;;;;;4933713;29;20036;-83
2023/08/03 05:25:58;;;;;;;16.13;13.30;;;23.70;85.20;;;;;;4933714;29;20443;-84
2023/08/03 05:28:25;;;;;;;19.00;13.43;;;23.60;85.40;;;;;;4934760;29;20053;-83
2023/08/03 05:30:51;;;;;;;;;;;23.70;85.20;;;;;;4935530;29;20114;-82
2023/08/03 05:33:17;;;;;;;18.23;12.75;;;23.70;83.70;;;;;;4939335;29;19958;-84
2023/08/03 05:35:44;;;;;;;22.70;13.18;;;23.70;85.20;;;;;;4939254;29;20035;-84
2023/08/03 05:38:10;;;;;;;19.95;12.85;;;23.70;85.00;;;;;;4936765;29;20650;-83
2023/08/03 05:40:40;;;;;;;20.00;14.07;;;23.70;86.40;;;;;;4933420;29;20035;-84
2023/08/03 05:43:14;;;;;;;20.45;13.82;;;23.70;87.40;;;;;;4934774;29;20035;-83
2023/08/03 05:45:47;;;;;;;25.85;15.27;;;23.60;87.90;;;;;;4935222;29;20566;-83
2023/08/03 05:48:18;;;;;;;22.27;13.82;;;23.60;88.60;;;;;;4917627;29;20039;-82
2023/08/03 05:50:47;;;;;;;24.25;14.63;;;23.50;86.60;;;;;;4935051;29;20032;-83
2023/08/03 05:53:13;;;;;;;20.33;13.85;;;23.60;87.90;;;;;;4933382;29;20032;-82
2023/08/03 05:55:40;;;;;;;19.67;14.67;;;23.70;88.00;;;;;;4934822;29;20020;-82
2023/08/03 05:58:08;;;;;;;;;;;23.90;87.70;;;;;;4933860;29;20028;-82
2023/08/03 06:00:34;;;;;;;18.33;15.13;;;23.90;82.50;;;;;;4933289;29;19967;-83
2023/08/03 06:03:00;;;;;;;18.50;13.03;;;24.00;86.90;;;;;;4933367;29;20055;-83
2023/08/03 06:05:37;;;;;;;17.55;13.68;;;24.00;86.30;;;;;;4936667;29;20028;-82
2023/08/03 06:08:16;;;;;;;24.83;14.90;;;24.10;82.50;;;;;;4940923;29;20110;-84
2023/08/03 06:10:43;;;;;;;19.65;14.27;;;24.20;85.20;;;;;;4938280;29;20034;-84
2023/08/03 06:13:11;;;;;;;21.20;14.73;;;24.20;85.90;;;;;;4937881;29;20494;-82
2023/08/03 06:15:37;;;;;;;22.77;15.00;;;24.30;86.30;;;;;;4938370;29;20028;-82
2023/08/03 06:18:05;;;;;;;19.58;14.02;;;24.30;86.10;;;;;;4937972;29;20087;-83
2023/08/03 06:20:33;;;;;;;22.70;15.77;;;24.40;85.50;;;;;;4922458;29;20032;-83
2023/08/03 06:22:59;;;;;;;23.90;15.15;;;24.50;86.20;;;;;;4939544;29;20079;-82
2023/08/03 06:25:24;;;;;;;19.60;14.70;;;24.50;86.80;;;;;;4921640;29;20039;-83
2023/08/03 06:27:50;;;;;;;23.67;13.87;;;24.60;86.30;;;;;;4937326;29;20039;-84
2023/08/03 06:30:17;;;;;;;24.13;14.47;;;24.60;86.10;;;;;;4941584;29;20560;-82
2023/08/03 06:32:43;;;;;;;;;;;24.70;86.70;;;;;;4938031;29;20027;-83
2023/08/03 06:35:32;;;;;;;21.17;12.20;;;24.70;86.70;;;;;;4938258;29;19906;-83
2023/08/03 06:38:02;;;;;;;21.73;13.02;;;24.80;86.10;;;;;;4939231;29;20406;-83
2023/08/03 06:40:28;;;;;;;20.92;13.10;;;24.90;86.00;;;;;;4941893;29;20043;-83
2023/08/03 06:42:54;;;;;;;20.47;13.53;;;24.90;85.60;;;;;;4937562;29;20082;-82
2023/08/03 06:45:20;;;;;;;23.70;14.80;;;25.00;85.70;;;;;;4938774;29;20125;-83
2023/08/03 06:47:47;;;;;;;22.10;13.27;;;25.10;85.70;;;;;;4939168;29;20023;-83
2023/08/03 06:50:13;;;;;;;23.73;13.40;;;25.10;85.70;;;;;;4921132;29;20419;-83
2023/08/03 06:52:39;;;;;;;22.90;13.43;;;25.20;85.00;;;;;;4937473;29;20115;-83
2023/08/03 06:55:05;;;;;;;20.20;11.90;;;25.20;84.40;;;;;;4936019;29;20051;-83
2023/08/03 06:57:31;;;;;;;20.33;11.00;;;25.30;84.70;;;;;;4937608;29;20051;-83
2023/08/03 06:59:57;;;;;;;25.87;13.60;;;25.40;83.20;;;;;;4938068;29;20568;-83
2023/08/03 07:02:23;;;;;;;24.23;13.27;;;25.40;82.00;;;;;;4936154;29;20068;-84
2023/08/03 07:04:49;;;;;;;23.73;12.48;;;25.40;82.50;;;;;;4920488;29;20402;-83
2023/08/03 07:07:15;;;;;;;22.10;11.80;;;25.40;82.00;;;;;;4936343;29;20123;-83
2023/08/03 07:09:41;;;;;;;21.87;12.07;;;25.50;82.40;;;;;;4936550;29;20098;-85
2023/08/03 07:12:10;;;;;;;24.90;12.30;;;25.60;82.60;;;;;;4936227;29;20054;-83
2023/08/03 07:14:36;;;;;;;21.80;11.57;;;25.70;82.70;;;;;;4920967;29;20490;-85
2023/08/03 07:17:01;;;;;;;23.87;11.07;;;25.80;81.40;;;;;;4936234;29;20035;-83
2023/08/03 07:19:27;;;;;;;22.57;11.43;;;25.80;81.10;;;;;;4937837;29;20039;-84
2023/08/03 07:21:53;;;;;;;24.40;13.20;;;25.80;81.40;;;;;;4920737;29;20035;-83
2023/08/03 07:24:19;;;;;;;21.30;12.53;;;25.90;81.70;;;;;;4936213;29;20042;-83
2023/08/03 07:26:48;;;;;;;23.47;12.03;;;25.90;80.90;;;;;;4936372;29;20090;-84
2023/08/03 07:29:14;;;;;;;25.13;12.50;;;26.00;81.40;;;;;;4937392;29;20031;-84
2023/08/03 07:31:39;;;;;;;22.07;12.90;;;26.10;82.10;;;;;;4937670;29;20043;-84
2023/08/03 07:34:05;;;;;;;19.83;12.70;;;26.20;82.00;;;;;;4935976;29;20578;-84
2023/08/03 07:36:31;;;;;;;24.63;13.17;;;26.20;81.50;;;;;;4937077;29;20253;-84
2023/08/03 07:38:57;;;;;;;18.33;11.83;;;26.30;81.30;;;;;;4936903;29;20035;-84
2023/08/03 07:41:23;;;;;;;24.23;13.60;;;26.40;81.40;;;;;;4920311;29;20039;-85
2023/08/03 07:43:50;;;;;;;20.73;12.67;;;26.50;80.50;;;;;;4921595;29;20122;-84
2023/08/03 07:46:16;;;;;;;21.27;11.95;;;26.60;79.90;;;;;;4936099;29;20102;-86
2023/08/03 07:48:42;;;;;;;21.80;12.13;;;26.60;79.10;;;;;;4920408;29;20042;-85
2023/08/03 07:51:15;;;;;;;17.43;12.20;;;26.60;78.40;;;;;;4937032;29;20031;-84
2023/08/03 07:53:41;;;;;;;18.67;11.93;;;26.60;78.80;;;;;;4937776;29;20055;-84
2023/08/03 07:56:17;;;;;;;17.20;11.73;;;26.70;78.90;;;;;;4937754;29;20035;-84
2023/08/03 07:58:44;;;;;;;19.50;9.67;;;26.70;79.10;;;;;;4936566;29;20275;-84
2023/08/03 08:01:10;;;;;;;17.77;9.50;;;26.80;79.10;;;;;;4936203;29;20031;-84
2023/08/03 08:03:38;;;;;;;20.80;10.33;;;26.90;78.20;;;;;;4936712;29;20050;-85
2023/08/03 08:06:15;;;;;;;18.33;10.20;;;27.00;77.50;;;;;;4935810;29;20040;-84
2023/08/03 08:08:42;;;;;;;15.73;9.32;;;27.10;76.80;;;;;;4935429;29;20031;-84
2023/08/03 08:11:08;;;;;;;19.58;9.20;;;27.10;76.50;;;;;;4936840;29;20023;-83
2023/08/03 08:13:34;;;;;;;15.95;8.77;;;27.20;75.60;;;;;;4935597;29;20067;-84
2023/08/03 08:16:02;;;;;;;16.83;8.18;;;27.20;75.80;;;;;;4936140;29;20043;-85
2023/08/03 08:18:29;;;;;;;15.13;7.55;;;27.30;76.40;;;;;;4935996;29;20035;-84
2023/08/03 08:20:58;;;;;;;;;;;27.30;75.80;;;;;;4934952;29;20040;-85
2023/08/03 08:23:24;;;;;;;17.13;7.35;;;27.40;74.20;;;;;;4936745;29;19911;-84
2023/08/03 08:25:50;;;;;;;25.47;7.27;;;27.50;75.10;;;;;;4936093;29;20387;-84
2023/08/03 08:28:17;;;;;;;14.32;7.75;;;27.60;75.10;;;;;;4935780;29;20055;-85
2023/08/03 08:30:44;;;;;;;14.15;7.15;;;27.70;75.00;;;;;;4936986;29;20031;-86
2023/08/03 08:33:10;;;;;;;12.55;6.65;;;27.70;74.70;;;;;;4937811;29;20036;-84
2023/08/03 08:35:36;;;;;;;15.88;6.93;;;27.90;74.20;;;;;;4937372;29;20027;-84
2023/08/03 08:38:05;;;;;;;12.02;6.25;;;28.00;73.30;;;;;;4935715;29;20458;-84
2023/08/03 08:40:38;;;;;;;11.98;6.25;;;28.10;73.00;;;;;;4936580;29;20455;-85
2023/08/03 08:43:04;;;;;;;11.48;6.57;;;28.20;73.90;;;;;;4935633;29;20032;-84
2023/08/03 08:45:30;;;;;;;14.90;6.63;;;28.30;73.10;;;;;;4935589;29;20035;-84
2023/08/03 08:47:57;;;;;;;17.02;5.47;;;28.40;72.50;;;;;;4934086;29;20043;-84
2023/08/03 08:50:23;;;;;;;13.98;5.93;;;28.50;71.40;;;;;;4934425;29;20031;-84
2023/08/03 08:52:50;;;;;;;7.80;4.43;;;28.60;70.50;;;;;;4934315;29;20086;-84
2023/08/03 08:55:22;;;;;;;8.68;4.82;;;28.60;69.20;;;;;;4936013;29;20438;-84
2023/08/03 08:57:48;;;;;;;12.88;5.25;;;28.70;68.70;;;;;;4934755;29;20028;-84
2023/08/03 09:00:14;;;;;;;11.93;5.13;;;28.70;68.90;;;;;;4935171;29;20040;-85
2023/08/03 09:02:40;;;;;;;11.90;5.72;;;28.70;68.70;;;;;;4935333;29;20028;-84
2023/08/03 09:05:18;;;;;;;13.00;6.00;;;28.70;68.40;;;;;;4950266;29;20030;-84
2023/08/03 09:07:45;;;;;;;9.40;4.57;;;28.70;67.90;;;;;;4933978;29;20027;-84
2023/08/03 09:10:11;;;;;;;11.05;5.35;;;28.70;69.50;;;;;;4933815;29;20032;-84
2023/08/03 09:12:39;;;;;;;9.20;4.57;;;28.80;68.90;;;;;;4933872;29;20035;-84
2023/08/03 09:15:05;;;;;;;10.73;5.82;;;28.90;68.30;;;;;;4934013;29;20402;-84
2023/08/03 09:17:32;;;;;;;8.30;4.78;;;29.00;68.10;;;;;;4933641;29;20032;-84
2023/08/03 09:19:58;;;;;;;9.52;5.15;;;29.10;67.80;;;;;;4935336;29;20101;-85
2023/08/03 09:22:25;;;;;;;7.05;4.47;;;29.10;67.10;;;;;;4935449;29;20035;-86
2023/08/03 09:25:12;;;;;;;11.02;4.55;;;29.20;67.60;;;;;;4933882;29;20028;-84
2023/08/03 09:27:48;;;;;;;7.63;3.83;;;29.30;65.90;;;;;;4933690;29;20043;-83
2023/08/03 09:30:14;;;;;;;7.80;3.47;;;29.20;65.70;;;;;;4933985;29;20275;-83
2023/08/03 09:32:41;;;;;;;10.98;3.75;;;29.30;65.00;;;;;;4917524;29;20072;-83
2023/08/03 09:35:24;;;;;;;8.13;3.72;;;29.30;63.00;;;;;;4935262;29;20120;-83
2023/08/03 09:37:53;;;;;;;6.00;3.65;;;29.30;61.90;;;;;;4934945;29;20471;-86
2023/08/03 09:40:20;;;;;;;7.88;3.80;;;29.40;63.80;;;;;;4938291;29;20032;-83
2023/08/03 09:42:47;;;;;;;10.60;3.42;;;29.50;63.30;;;;;;4937438;29;20032;-83
2023/08/03 09:45:14;;;;;;;9.43;4.03;;;29.60;63.30;;;;;;4938793;29;20051;-83
2023/08/03 09:47:40;;;;;;;12.23;4.13;;;29.80;63.00;;;;;;4937449;29;20035;-83
2023/08/03 09:50:08;;;;;;;6.90;3.70;;;29.80;62.20;;;;;;4937333;29;20079;-86
2023/08/03 09:52:43;;;;;;;15.45;3.80;;;29.80;62.80;;;;;;4937036;29;20549;-83
2023/08/03 09:55:20;;;;;;;7.80;4.05;;;29.70;63.40;;;;;;4937657;29;20486;-83
2023/08/03 09:58:08;;;;;;;6.35;3.50;;;29.70;64.20;;;;;;4938496;29;20364;-83
2023/08/03 10:00:34;;;;;;;7.43;3.83;;;29.80;62.40;;;;;;4938391;29;20087;-83
2023/08/03 10:03:12;;;;;;;13.80;4.35;;;30.00;63.20;;;;;;4937429;29;20086;-83
2023/08/03 10:05:47;;;;;;;8.27;3.88;;;30.10;63.60;;;;;;4938836;29;20038;-84
2023/08/03 10:08:40;;;;;;;7.75;3.60;;;30.40;62.20;;;;;;4939774;29;20566;-83
2023/08/03 10:11:09;;;;;;;8.65;3.60;;;30.40;62.10;;;;;;4939538;29;20114;-83
2023/08/03 10:13:40;;;;;;;8.02;4.00;;;30.50;63.40;;;;;;4938588;29;20074;-83
2023/08/03 10:16:06;;;;;;;7.63;3.65;;;30.70;61.10;;;;;;4941512;29;20032;-83
2023/08/03 10:18:35;;;;;;;5.17;3.33;;;30.70;60.30;;;;;;4941435;29;20442;-84
2023/08/03 10:21:03;;;;;;;5.57;3.55;;;30.90;61.30;;;;;;4940959;29;20055;-82
2023/08/03 10:23:28;;;;;;;12.57;3.45;;;31.10;60.90;;;;;;4940388;29;20074;-83
2023/08/03 10:26:02;;;;;;;4.20;3.33;;;31.30;60.50;;;;;;4924017;29;20054;-82
2023/08/03 12:47:47;;;;;;;4.30;1.88;;;34.70;47.40;;;;;;5763112;23;20050;-80
2023/08/03 12:50:13;;;;;;;8.50;2.38;;;34.80;47.60;;;;;;4961523;29;20027;-80
2023/08/03 12:52:39;;;;;;;4.07;1.90;;;34.90;45.90;;;;;;4961657;29;20027;-79
2023/08/03 12:55:05;;;;;;;3.65;1.90;;;34.90;46.90;;;;;;4959893;28;20129;-80
2023/08/03 12:57:31;;;;;;;8.50;1.95;;;34.90;46.20;;;;;;4961008;28;20456;-80
2023/08/03 12:59:56;;;;;;;6.80;2.10;;;35.00;46.10;;;;;;4959679;29;20106;-79
2023/08/03 13:02:23;;;;;;;5.22;2.13;;;35.10;45.90;;;;;;4988891;23;20040;-82
2023/08/03 13:04:52;;;;;;;4.45;1.75;;;35.10;45.00;;;;;;4938697;29;20035;-82
2023/08/03 13:07:18;;;;;;;8.38;2.63;;;35.10;45.60;;;;;;4937885;29;20016;-83
2023/08/03 13:09:44;;;;;;;5.38;1.95;;;35.30;45.20;;;;;;4938432;29;20040;-82
2023/08/03 13:12:10;;;;;;;3.42;1.75;;;35.40;44.40;;;;;;4937247;29;20553;-83
2023/08/03 13:14:38;;;;;;;5.05;2.22;;;35.70;43.70;;;;;;4938349;29;20038;-85
2023/08/03 13:17:04;;;;;;;5.40;2.38;;;36.20;43.70;;;;;;4953884;29;20038;-84
2023/08/03 13:19:29;;;;;;;5.63;1.83;;;36.70;42.80;;;;;;4954348;29;20114;-84
2023/08/03 13:21:56;;;;;;;10.95;2.58;;;37.30;42.50;;;;;;4954000;29;20486;-84
2023/08/03 13:24:21;;;;;;;9.45;1.95;;;38.00;41.30;;;;;;4941256;29;20031;-84
2023/08/03 13:26:49;;;;;;;3.45;1.80;;;38.80;40.80;;;;;;4941656;29;20024;-83
2023/08/03 13:29:17;;;;;;;5.22;2.20;;;39.40;38.80;;;;;;4940601;29;20082;-83
2023/08/03 13:31:43;;;;;;;4.38;1.83;;;40.00;38.70;;;;;;4940288;29;20055;-83
2023/08/03 13:34:09;;;;;;;3.88;2.33;;;40.60;38.00;;;;;;4939581;29;20576;-83
2023/08/03 13:36:35;;;;;;;2.50;1.60;;;41.10;35.50;;;;;;4940879;29;20040;-82
2023/08/03 13:39:03;;;;;;;5.47;2.10;;;41.50;36.00;;;;;;4936816;29;20024;-83
2023/08/03 13:41:30;;;;;;;3.05;2.00;;;41.80;35.30;;;;;;4939790;29;20036;-83
2023/08/03 13:43:56;;;;;;;3.25;1.60;;;41.70;34.60;;;;;;4940977;29;20046;-83
2023/08/03 13:46:22;;;;;;;6.18;2.70;;;42.00;34.80;;;;;;4955703;29;20394;-82
2023/08/03 13:48:48;;;;;;;5.15;1.90;;;42.50;34.60;;;;;;4939284;29;20035;-83
2023/08/03 13:51:13;;;;;;;5.82;1.85;;;43.00;34.50;;;;;;4939745;29;20028;-83
2023/08/03 13:53:39;;;;;;;3.38;1.92;;;43.60;35.00;;;;;;4955917;29;20035;-83
2023/08/03 13:56:05;;;;;;;3.92;1.70;;;44.00;32.90;;;;;;4941778;29;20124;-82
2023/08/03 13:58:31;;;;;;;2.55;1.70;;;44.30;32.40;;;;;;4938610;29;20020;-83
2023/08/03 14:00:57;;;;;;;6.10;1.92;;;44.30;32.30;;;;;;4938009;29;20091;-85
2023/08/03 14:03:22;;;;;;;7.40;2.08;;;44.80;32.60;;;;;;4940710;29;20119;-82
2023/08/03 14:05:48;;;;;;;3.83;1.58;;;45.10;32.20;;;;;;4937755;29;20059;-82
2023/08/03 14:08:14;;;;;;;5.63;2.33;;;45.50;32.20;;;;;;4941035;29;20032;-83
2023/08/03 14:10:40;;;;;;;8.50;1.98;;;45.90;32.20;;;;;;4939857;29;20163;-83
2023/08/03 14:13:06;;;;;;;3.63;1.40;;;46.10;30.30;;;;;;4939485;29;20059;-83
2023/08/03 14:15:32;;;;;;;7.80;1.75;;;45.50;30.00;;;;;;4937667;29;20042;-82
2023/08/03 14:17:57;;;;;;;5.78;1.70;;;45.40;30.90;;;;;;4953706;29;20028;-85
2023/08/03 14:20:23;;;;;;;4.80;1.95;;;45.40;30.10;;;;;;4937762;29;20043;-84
2023/08/03 14:22:49;;;;;;;5.43;1.77;;;45.20;30.40;;;;;;4939639;29;20487;-85
2023/08/03 14:25:18;;;;;;;3.88;2.00;;;45.10;31.50;;;;;;4939303;29;20063;-83
2023/08/03 14:27:44;;;;;;;5.07;2.13;;;45.50;31.50;;;;;;4957673;29;20036;-84
2023/08/03 14:30:11;;;;;;;3.67;2.05;;;45.60;30.10;;;;;;4941723;29;20479;-82
2023/08/03 14:32:37;;;;;;;4.53;1.80;;;45.50;30.60;;;;;;4955115;29;20506;-82
2023/08/03 14:35:04;;;;;;;4.72;2.10;;;45.70;31.00;;;;;;4944316;29;20557;-82
2023/08/03 14:37:29;;;;;;;8.90;2.00;;;46.10;30.70;;;;;;4944886;29;20028;-82
2023/08/03 14:39:56;;;;;;;9.05;2.00;;;45.70;30.10;;;;;;4944566;29;20035;-82
2023/08/03 14:42:22;;;;;;;9.25;2.55;;;45.60;30.60;;;;;;4943532;29;20028;-83
2023/08/03 14:44:49;;;;;;;9.07;2.30;;;45.80;31.10;;;;;;4942635;29;20133;-83
2023/08/03 14:47:15;;;;;;;8.98;2.50;;;45.70;30.70;;;;;;4927931;29;20483;-82
2023/08/03 14:49:41;;;;;;;9.45;2.60;;;45.70;31.00;;;;;;4944889;29;20031;-83
2023/08/03 14:52:07;;;;;;;5.82;2.85;;;45.80;31.20;;;;;;4944436;29;20081;-83
2023/08/03 14:54:32;;;;;;;7.18;2.72;;;45.70;31.00;;;;;;4949946;29;20442;-83
2023/08/03 14:56:59;;;;;;;6.25;2.30;;;45.70;32.10;;;;;;4943308;29;20540;-83
2023/08/03 14:59:24;;;;;;;5.20;2.38;;;45.90;31.90;;;;;;4944525;29;20406;-83
2023/08/03 15:01:50;;;;;;;7.18;2.10;;;46.00;31.90;;;;;;4944935;29;20043;-83
2023/08/03 15:04:16;;;;;;;3.30;2.30;;;46.00;31.30;;;;;;4943181;29;20118;-82
2023/08/03 15:06:42;;;;;;;8.40;2.58;;;45.90;31.50;;;;;;4958769;29;20028;-83
2023/08/03 15:09:08;;;;;;;7.85;2.90;;;45.50;31.40;;;;;;4941964;29;20036;-82
2023/08/03 15:11:34;;;;;;;4.32;2.30;;;45.10;32.10;;;;;;4942749;29;20070;-82